createdAt,value
2018-05-06T00:02:09.992Z,52.10
2018-05-06T00:04:37.539Z,52.10
2018-05-06T00:07:05.028Z,52.40
2018-05-06T00:09:32.565Z,52.20
2018-05-06T00:12:00.086Z,51.90
2018-05-06T00:14:27.657Z,51.80
2018-05-06T00:16:56.164Z,51.80
2018-05-06T00:19:24.044Z,50.70
2018-05-06T00:21:51.955Z,50.70
2018-05-06T00:24:19.452Z,50.70
2018-05-06T00:26:47.026Z,51.20
2018-05-06T00:29:14.520Z,50.70
2018-05-06T00:31:42.010Z,50.90
2018-05-06T00:34:09.484Z,50.80
2018-05-06T00:36:37.085Z,52.00
2018-05-06T00:39:05.062Z,50.80
2018-05-06T00:41:32.961Z,51.80
2018-05-06T00:44:00.443Z,51.80
2018-05-06T00:46:28.011Z,52.10
2018-05-06T00:48:55.469Z,52.20
2018-05-06T00:51:22.987Z,52.50
2018-05-06T00:53:50.541Z,52.60
2018-05-06T00:56:18.446Z,51.90
2018-05-06T00:58:45.987Z,51.90
2018-05-06T01:01:13.953Z,52.30
2018-05-06T01:03:41.478Z,52.30
2018-05-06T01:06:08.953Z,53.10
2018-05-06T01:08:36.501Z,52.80
2018-05-06T01:11:03.985Z,52.30
2018-05-06T01:13:31.877Z,53.10
2018-05-06T01:15:59.843Z,52.50
2018-05-06T01:18:27.354Z,52.50
2018-05-06T01:20:54.819Z,52.30
2018-05-06T01:23:22.298Z,53.10
2018-05-06T01:25:49.816Z,53.10
2018-05-06T01:28:17.350Z,52.50
2018-05-06T01:30:44.823Z,53.50
2018-05-06T01:33:12.313Z,52.10
2018-05-06T01:35:39.778Z,53.10
2018-05-06T01:38:07.251Z,53.40
2018-05-06T01:40:34.896Z,52.70
2018-05-06T01:43:02.381Z,51.60
2018-05-06T01:45:29.877Z,53.00
2018-05-06T01:47:57.373Z,52.90
2018-05-06T01:50:25.322Z,52.50
2018-05-06T01:52:52.803Z,52.40
2018-05-06T01:55:21.048Z,53.30
2018-05-06T01:57:48.510Z,53.20
2018-05-06T02:00:15.964Z,52.90
2018-05-06T02:02:43.450Z,53.10
2018-05-06T02:05:10.920Z,53.20
2018-05-06T02:07:38.381Z,53.10
2018-05-06T02:10:05.955Z,53.30
2018-05-06T02:12:33.424Z,53.30
2018-05-06T02:15:01.275Z,53.50
2018-05-06T02:17:28.938Z,53.50
2018-05-06T02:19:56.425Z,53.30
2018-05-06T02:22:24.304Z,52.40
2018-05-06T02:24:52.282Z,52.80
2018-05-06T02:27:20.156Z,52.20
2018-05-06T02:29:48.090Z,51.40
2018-05-06T02:32:15.569Z,51.40
2018-05-06T02:34:43.457Z,52.90
2018-05-06T02:37:11.319Z,52.60
2018-05-06T02:39:39.198Z,53.20
2018-05-06T02:42:07.147Z,52.70
2018-05-06T02:44:34.630Z,52.70
2018-05-06T02:47:03.410Z,53.10
2018-05-06T02:49:30.971Z,53.10
2018-05-06T02:51:58.454Z,52.80
2018-05-06T02:54:26.381Z,53.50
2018-05-06T02:56:53.862Z,53.40
2018-05-06T02:59:21.333Z,53.50
2018-05-06T03:01:48.791Z,53.40
2018-05-06T03:04:16.348Z,53.50
2018-05-06T03:06:45.212Z,53.50
2018-05-06T03:09:12.698Z,53.00
2018-05-06T03:11:40.164Z,53.10
2018-05-06T03:14:07.639Z,53.10
2018-05-06T03:16:35.113Z,53.10
2018-05-06T03:19:02.972Z,53.70
2018-05-06T03:21:30.441Z,53.70
2018-05-06T03:23:58.311Z,53.70
2018-05-06T03:26:26.191Z,54.00
2018-05-06T03:28:54.123Z,53.80
2018-05-06T03:31:21.597Z,53.80
2018-05-06T03:33:49.074Z,53.90
2018-05-06T03:36:16.968Z,54.10
2018-05-06T03:38:46.115Z,53.80
2018-05-06T03:41:13.591Z,53.80
2018-05-06T03:43:41.082Z,53.80
2018-05-06T03:46:08.950Z,53.80
2018-05-06T03:48:37.547Z,53.60
2018-05-06T03:51:05.414Z,53.70
2018-05-06T03:53:33.294Z,53.60
2018-05-06T04:09:37.973Z,53.20
2018-05-06T04:12:05.944Z,53.40
2018-05-06T04:14:33.432Z,53.40
2018-05-06T04:17:01.283Z,53.00
2018-05-06T04:19:29.187Z,53.00
2018-05-06T04:21:56.966Z,53.00
2018-05-06T04:24:24.473Z,53.30
2018-05-06T04:26:52.186Z,52.70
2018-05-06T04:29:20.114Z,52.90
2018-05-06T04:31:47.987Z,53.20
2018-05-06T04:34:15.486Z,53.20
2018-05-06T04:36:42.973Z,53.40
2018-05-06T04:39:10.462Z,53.10
2018-05-06T04:41:37.945Z,53.10
2018-05-06T04:44:05.816Z,54.20
2018-05-06T04:46:33.763Z,53.30
2018-05-06T04:49:01.240Z,53.30
2018-05-06T04:51:28.718Z,53.80
2018-05-06T04:53:56.196Z,53.50
2018-05-06T04:56:23.735Z,52.80
2018-05-06T04:58:51.450Z,53.80
2018-05-06T05:01:18.923Z,53.00
2018-05-06T05:03:46.403Z,51.80
2018-05-06T05:06:13.874Z,54.40
2018-05-06T05:08:41.345Z,54.90
2018-05-06T05:11:08.820Z,53.60
2018-05-06T05:13:36.703Z,53.10
2018-05-06T05:16:04.677Z,53.10
2018-05-06T05:18:32.477Z,53.10
2018-05-06T05:20:59.986Z,53.50
2018-05-06T05:23:27.553Z,53.10
2018-05-06T05:25:55.519Z,51.10
2018-05-06T05:28:23.014Z,51.00
2018-05-06T05:30:50.964Z,50.30
2018-05-06T05:33:18.436Z,50.30
2018-05-06T05:35:46.342Z,51.60
2018-05-06T05:38:13.835Z,51.60
2018-05-06T05:40:41.343Z,51.40
2018-05-06T05:43:08.870Z,51.20
2018-05-06T05:45:36.336Z,49.90
2018-05-06T05:48:03.917Z,48.00
2018-05-06T05:50:31.403Z,49.50
2018-05-06T05:52:59.302Z,46.50
2018-05-06T05:55:26.782Z,46.50
2018-05-06T05:57:54.260Z,47.30
2018-05-06T06:00:21.753Z,45.60
2018-05-06T06:02:49.615Z,44.90
2018-05-06T06:05:17.911Z,46.70
2018-05-06T06:07:45.802Z,44.90
2018-05-06T06:10:13.294Z,44.90
2018-05-06T06:12:40.837Z,44.50
2018-05-06T06:15:08.334Z,44.70
2018-05-06T06:17:35.821Z,47.60
2018-05-06T06:20:03.297Z,44.60
2018-05-06T06:22:31.145Z,44.90
2018-05-06T06:24:58.640Z,44.80
2018-05-06T06:27:26.230Z,43.60
2018-05-06T06:29:53.706Z,43.00
2018-05-06T06:32:21.197Z,43.50
2018-05-06T06:34:49.572Z,43.50
2018-05-06T06:37:17.163Z,42.80
2018-05-06T06:39:45.117Z,43.10
2018-05-06T06:42:12.619Z,43.10
2018-05-06T06:44:40.091Z,42.90
2018-05-06T06:47:07.551Z,42.40
2018-05-06T06:49:35.060Z,41.90
2018-05-06T06:52:02.642Z,42.70
2018-05-06T06:54:30.218Z,42.10
2018-05-06T06:56:58.085Z,42.40
2018-05-06T06:59:26.020Z,42.60
2018-05-06T07:01:53.559Z,42.60
2018-05-06T07:04:21.056Z,41.80
2018-05-06T07:06:48.551Z,41.30
2018-05-06T07:09:16.036Z,42.20
2018-05-06T07:11:43.485Z,41.10
2018-05-06T07:14:11.356Z,41.40
2018-05-06T07:16:39.235Z,40.70
2018-05-06T07:19:06.733Z,40.70
2018-05-06T07:21:34.223Z,40.90
2018-05-06T07:24:01.692Z,39.90
2018-05-06T07:26:29.203Z,39.30
2018-05-06T07:28:57.076Z,39.70
2018-05-06T07:31:24.578Z,40.10
2018-05-06T07:33:52.039Z,40.20
2018-05-06T07:36:19.517Z,40.50
2018-05-06T07:38:47.438Z,39.80
2018-05-06T07:41:15.078Z,39.80
2018-05-06T07:43:42.638Z,40.00
2018-05-06T07:46:10.178Z,39.40
2018-05-06T07:48:38.055Z,38.90
2018-05-06T07:51:05.957Z,39.90
2018-05-06T07:53:33.445Z,39.90
2018-05-06T07:56:00.914Z,39.50
2018-05-06T07:58:28.443Z,42.00
2018-05-06T08:00:55.934Z,39.30
2018-05-06T08:03:23.477Z,39.20
2018-05-06T08:05:52.136Z,38.60
2018-05-06T08:08:19.589Z,38.60
2018-05-06T08:10:47.062Z,38.60
2018-05-06T08:13:15.066Z,39.80
2018-05-06T08:15:42.638Z,39.80
2018-05-06T08:18:10.128Z,39.50
2018-05-06T08:20:37.611Z,39.00
2018-05-06T08:23:05.090Z,40.20
2018-05-06T08:25:32.963Z,38.40
2018-05-06T08:28:00.458Z,38.40
2018-05-06T08:30:27.977Z,38.60
2018-05-06T08:32:55.434Z,38.30
2018-05-06T08:35:22.896Z,38.40
2018-05-06T08:37:50.360Z,38.70
2018-05-06T08:40:17.909Z,38.40
2018-05-06T08:42:45.473Z,39.40
2018-05-06T08:45:12.927Z,39.30
2018-05-06T08:47:40.381Z,39.00
2018-05-06T08:50:07.840Z,39.30
2018-05-06T08:52:35.322Z,39.30
2018-05-06T08:55:02.787Z,39.70
2018-05-06T08:57:30.564Z,40.30
2018-05-06T08:59:58.028Z,40.00
2018-05-06T09:02:25.477Z,39.30
2018-05-06T09:04:52.992Z,39.00
2018-05-06T09:07:20.488Z,39.50
2018-05-06T09:09:48.055Z,38.80
2018-05-06T09:12:15.525Z,39.10
2018-05-06T09:14:43.095Z,38.70
2018-05-06T09:17:10.651Z,38.60
2018-05-06T09:19:38.305Z,39.00
2018-05-06T09:22:05.784Z,38.50
2018-05-06T09:24:33.268Z,39.60
2018-05-06T09:27:00.724Z,39.10
2018-05-06T09:29:28.500Z,37.80
2018-05-06T09:31:55.968Z,37.80
2018-05-06T09:34:23.827Z,36.60
2018-05-06T09:36:51.340Z,36.60
2018-05-06T09:39:18.816Z,37.10
2018-05-06T09:41:46.582Z,37.70
2018-05-06T09:44:14.071Z,36.20
2018-05-06T09:46:41.655Z,35.70
2018-05-06T09:49:09.212Z,35.20
2018-05-06T09:51:36.679Z,35.00
2018-05-06T09:54:04.186Z,35.80
2018-05-06T09:56:31.638Z,35.10
2018-05-06T09:58:59.153Z,35.00
2018-05-06T10:01:26.685Z,34.80
2018-05-06T10:03:54.185Z,35.00
2018-05-06T10:06:21.719Z,34.50
2018-05-06T10:08:49.170Z,34.70
2018-05-06T10:11:17.498Z,34.50
2018-05-06T10:13:44.969Z,34.20
2018-05-06T10:16:12.833Z,34.60
2018-05-06T10:18:40.356Z,34.60
2018-05-06T10:21:07.825Z,34.90
2018-05-06T10:23:35.287Z,35.10
2018-05-06T10:26:02.775Z,35.40
2018-05-06T10:28:30.342Z,35.10
2018-05-06T10:30:57.866Z,35.30
2018-05-06T10:33:25.390Z,35.50
2018-05-06T10:35:53.251Z,35.80
2018-05-06T10:38:21.177Z,35.80
2018-05-06T10:40:48.652Z,37.10
2018-05-06T10:43:16.176Z,36.90
2018-05-06T10:45:44.026Z,36.50
2018-05-06T10:48:11.992Z,36.90
2018-05-06T10:50:39.852Z,36.60
2018-05-06T10:53:07.316Z,36.60
2018-05-06T10:55:34.853Z,37.20
2018-05-06T10:58:02.313Z,36.80
2018-05-06T11:00:29.769Z,37.10
2018-05-06T11:02:57.232Z,37.70
2018-05-06T11:05:24.693Z,37.50
2018-05-06T11:07:52.296Z,37.20
2018-05-06T11:10:20.109Z,37.50
2018-05-06T11:12:47.968Z,37.50
2018-05-06T11:15:15.432Z,37.50
2018-05-06T11:17:43.287Z,37.60
2018-05-06T11:20:10.754Z,37.60
2018-05-06T11:22:38.605Z,37.70
2018-05-06T11:25:06.076Z,37.70
2018-05-06T11:27:33.919Z,37.60
2018-05-06T11:30:01.374Z,37.60
2018-05-06T11:32:28.908Z,37.10
2018-05-06T11:34:56.426Z,37.50
2018-05-06T11:37:23.902Z,36.70
2018-05-06T11:39:51.756Z,36.80
2018-05-06T11:42:19.224Z,36.80
2018-05-06T11:44:46.753Z,36.80
2018-05-06T11:47:14.215Z,37.00
2018-05-06T11:49:41.673Z,35.50
2018-05-06T11:52:09.140Z,35.50
2018-05-06T11:54:36.613Z,35.10
2018-05-06T11:57:04.126Z,35.20
2018-05-06T11:59:32.000Z,35.60
2018-05-06T12:01:59.936Z,36.10
2018-05-06T12:04:27.396Z,36.10
2018-05-06T12:06:54.859Z,35.20
2018-05-06T12:09:22.369Z,35.20
2018-05-06T12:11:49.888Z,34.50
2018-05-06T12:14:17.988Z,34.50
2018-05-06T12:16:45.935Z,34.80
2018-05-06T12:19:13.403Z,34.80
2018-05-06T12:21:40.924Z,34.70
2018-05-06T12:24:08.417Z,34.70
2018-05-06T12:26:35.869Z,35.00
2018-05-06T12:29:03.328Z,34.10
2018-05-06T12:31:30.806Z,33.70
2018-05-06T12:33:58.344Z,33.80
2018-05-06T12:36:25.845Z,33.00
2018-05-06T12:38:53.399Z,33.60
2018-05-06T12:41:20.859Z,33.60
2018-05-06T12:43:48.331Z,33.30
2018-05-06T12:46:15.849Z,33.30
2018-05-06T12:48:43.336Z,33.10
2018-05-06T12:51:10.816Z,33.20
2018-05-06T12:53:38.273Z,34.00
2018-05-06T12:56:05.727Z,33.70
2018-05-06T12:58:33.264Z,33.60
2018-05-06T13:01:00.756Z,34.00
2018-05-06T13:03:28.215Z,34.00
2018-05-06T13:05:55.682Z,33.80
2018-05-06T13:08:23.127Z,34.70
2018-05-06T13:10:50.635Z,35.20
2018-05-06T13:13:18.098Z,35.70
2018-05-06T13:15:46.048Z,35.00
2018-05-06T13:18:13.511Z,35.00
2018-05-06T13:20:40.989Z,34.80
2018-05-06T13:23:08.504Z,34.90
2018-05-06T13:25:36.371Z,34.60
2018-05-06T13:28:04.001Z,34.20
2018-05-06T13:30:31.962Z,34.70
2018-05-06T13:32:59.413Z,34.70
2018-05-06T13:35:26.887Z,33.90
2018-05-06T13:37:54.381Z,33.10
2018-05-06T13:40:21.834Z,33.60
2018-05-06T13:42:49.782Z,33.70
2018-05-06T13:45:17.244Z,33.70
2018-05-06T13:47:44.856Z,34.20
2018-05-06T13:50:12.419Z,34.20
2018-05-06T13:52:39.799Z,34.20
2018-05-06T13:55:07.285Z,35.50
2018-05-06T13:57:34.746Z,34.50
2018-05-06T14:00:02.324Z,34.80
2018-05-06T14:02:29.780Z,35.40
2018-05-06T14:04:57.340Z,35.00
2018-05-06T14:07:24.999Z,35.00
2018-05-06T14:09:52.457Z,35.50
2018-05-06T14:12:20.248Z,35.00
2018-05-06T14:14:47.704Z,35.10
2018-05-06T14:17:15.168Z,35.30
2018-05-06T14:19:42.627Z,35.00
2018-05-06T14:22:10.084Z,35.10
2018-05-06T14:24:37.581Z,34.70
2018-05-06T14:27:05.445Z,34.70
2018-05-06T14:29:33.307Z,34.70
2018-05-06T14:32:00.885Z,34.70
2018-05-06T14:34:28.756Z,35.20
2018-05-06T14:36:56.665Z,34.50
2018-05-06T14:39:24.525Z,34.40
2018-05-06T14:41:52.052Z,34.70
2018-05-06T14:44:19.911Z,34.10
2018-05-06T14:46:59.180Z,34.00
2018-05-06T14:49:26.710Z,33.80
2018-05-06T14:51:54.165Z,34.00
2018-05-06T14:54:21.630Z,34.30
2018-05-06T14:56:49.117Z,34.10
2018-05-06T14:59:17.024Z,33.60
2018-05-06T15:01:44.480Z,33.60
2018-05-06T15:04:11.939Z,33.90
2018-05-06T15:06:39.413Z,33.50
2018-05-06T15:09:06.910Z,34.40
2018-05-06T15:11:34.425Z,34.60
2018-05-06T15:14:02.322Z,34.40
2018-05-06T15:16:29.820Z,34.60
2018-05-06T15:18:57.405Z,34.90
2018-05-06T15:21:24.855Z,34.60
2018-05-06T15:23:52.799Z,34.50
2018-05-06T15:26:20.375Z,34.50
2018-05-06T15:28:47.830Z,34.80
2018-05-06T15:31:15.301Z,34.30
2018-05-06T15:33:42.764Z,34.30
2018-05-06T15:36:10.240Z,34.90
2018-05-06T15:38:38.202Z,34.40
2018-05-06T15:41:05.682Z,34.40
2018-05-06T15:43:33.541Z,35.20
2018-05-06T15:46:01.005Z,35.20
2018-05-06T15:48:28.844Z,34.60
2018-05-06T15:50:56.628Z,33.80
2018-05-06T15:53:25.213Z,33.50
2018-05-06T15:55:53.092Z,32.80
2018-05-06T15:58:20.560Z,32.80
2018-05-06T16:00:48.021Z,33.80
2018-05-06T16:03:27.370Z,33.80
2018-05-06T16:05:55.216Z,32.90
2018-05-06T16:08:22.787Z,32.90
2018-05-06T16:10:50.304Z,32.80
2018-05-06T16:13:17.767Z,32.90
2018-05-06T16:15:45.236Z,33.00
2018-05-06T16:18:12.709Z,33.10
2018-05-06T16:20:40.164Z,32.80
2018-05-06T16:23:07.677Z,33.10
2018-05-06T16:25:35.551Z,33.10
2018-05-06T16:28:03.494Z,32.60
2018-05-06T16:30:30.973Z,32.60
2018-05-06T16:32:58.536Z,32.90
2018-05-06T16:35:26.029Z,33.10
2018-05-06T16:37:53.522Z,33.10
2018-05-06T16:40:20.976Z,33.20
2018-05-06T16:42:48.442Z,33.40
2018-05-06T16:45:15.898Z,33.60
2018-05-06T16:47:43.458Z,33.60
2018-05-06T16:50:10.899Z,33.80
2018-05-06T16:52:38.894Z,33.60
2018-05-06T16:55:06.397Z,33.60
2018-05-06T16:57:33.855Z,33.60
2018-05-06T17:00:01.430Z,33.80
2018-05-06T17:02:28.893Z,34.10
2018-05-06T17:04:56.338Z,34.90
2018-05-06T17:07:23.823Z,34.50
2018-05-06T17:09:52.051Z,34.90
2018-05-06T17:12:19.565Z,35.40
2018-05-06T17:14:47.020Z,35.40
2018-05-06T17:17:15.589Z,35.80
2018-05-06T17:19:43.162Z,36.00
2018-05-06T17:22:11.017Z,35.80
2018-05-06T17:24:38.458Z,35.80
2018-05-06T17:27:05.995Z,36.00
2018-05-06T17:29:33.525Z,36.20
2018-05-06T17:32:00.985Z,36.60
2018-05-06T17:34:28.439Z,36.50
2018-05-06T17:36:55.952Z,36.60
2018-05-06T17:39:23.806Z,36.80
2018-05-06T17:41:51.278Z,36.80
2018-05-06T17:44:19.223Z,37.60
2018-05-06T17:46:46.792Z,37.60
2018-05-06T17:49:14.311Z,38.20
2018-05-06T17:51:41.791Z,38.40
2018-05-06T17:54:09.275Z,37.80
2018-05-06T17:56:36.844Z,38.20
2018-05-06T17:59:04.414Z,38.80
2018-05-06T18:01:31.946Z,38.20
2018-05-06T18:03:59.404Z,38.30
2018-05-06T18:06:26.868Z,38.20
2018-05-06T18:08:54.322Z,38.40
2018-05-06T18:11:21.790Z,38.60
2018-05-06T18:13:49.289Z,38.70
2018-05-06T18:16:16.792Z,39.00
2018-05-06T18:18:44.256Z,39.30
2018-05-06T18:21:11.791Z,39.10
2018-05-06T18:23:39.359Z,39.50
2018-05-06T18:26:07.273Z,39.70
2018-05-06T18:28:34.736Z,39.60
2018-05-06T18:31:02.250Z,40.00
2018-05-06T18:33:31.393Z,40.40
2018-05-06T18:35:58.858Z,40.40
2018-05-06T18:38:26.384Z,40.10
2018-05-06T18:40:54.247Z,40.80
2018-05-06T18:43:21.719Z,40.80
2018-05-06T18:45:49.260Z,40.80
2018-05-06T18:48:16.835Z,41.00
2018-05-06T18:50:44.348Z,40.90
2018-05-06T18:53:12.455Z,40.90
2018-05-06T18:55:39.916Z,41.20
2018-05-06T18:58:07.385Z,41.00
2018-05-06T19:00:34.879Z,41.50
2018-05-06T19:03:02.840Z,41.90
2018-05-06T19:05:30.304Z,41.90
2018-05-06T19:07:57.758Z,42.00
2018-05-06T19:10:25.630Z,42.00
2018-05-06T19:12:53.078Z,42.10
2018-05-06T19:15:20.595Z,41.90
2018-05-06T19:17:48.123Z,42.10
2018-05-06T19:20:15.987Z,42.30
2018-05-06T19:22:43.444Z,42.30
2018-05-06T19:25:10.907Z,42.30
2018-05-06T19:27:38.468Z,42.70
2018-05-06T19:30:05.937Z,42.70
2018-05-06T19:32:33.593Z,42.30
2018-05-06T19:35:00.966Z,42.60
2018-05-06T19:37:28.952Z,42.50
2018-05-06T19:39:56.895Z,43.00
2018-05-06T19:42:24.390Z,43.00
2018-05-06T19:44:51.804Z,43.80
2018-05-06T19:47:19.461Z,43.10
2018-05-06T19:49:46.916Z,43.30
2018-05-06T19:52:14.408Z,43.20
2018-05-06T19:54:41.872Z,43.20
2018-05-06T19:57:09.348Z,43.20
2018-05-06T19:59:36.908Z,43.50
2018-05-06T20:02:04.470Z,43.40
2018-05-06T20:04:32.644Z,43.40
2018-05-06T20:07:00.122Z,43.40
2018-05-06T20:09:27.580Z,43.50
2018-05-06T20:11:55.144Z,43.90
2018-05-06T20:14:23.246Z,43.90
2018-05-06T20:16:50.741Z,44.00
2018-05-06T20:19:18.204Z,43.90
2018-05-06T20:21:45.792Z,44.10
2018-05-06T20:24:13.563Z,44.10
2018-05-06T20:26:41.008Z,44.40
2018-05-06T20:29:08.524Z,44.70
2018-05-06T20:31:35.983Z,44.40
2018-05-06T20:34:03.892Z,45.20
2018-05-06T20:36:31.362Z,45.20
2018-05-06T20:38:58.824Z,45.50
2018-05-06T20:44:00.250Z,45.70
2018-05-06T20:46:28.118Z,45.30
2018-05-06T20:48:56.028Z,44.90
2018-05-06T20:51:24.286Z,44.90
2018-05-06T20:53:51.743Z,45.60
2018-05-06T20:56:19.563Z,45.60
2018-05-06T20:58:47.062Z,45.60
2018-05-06T21:01:14.887Z,46.30
2018-05-06T21:03:42.368Z,46.30
2018-05-06T21:06:09.913Z,46.20
2018-05-06T21:08:37.349Z,45.40
2018-05-06T21:11:04.838Z,45.20
2018-05-06T21:13:32.303Z,45.60
2018-05-06T21:15:59.767Z,46.50
2018-05-06T21:18:27.274Z,46.00
2018-05-06T21:20:55.202Z,46.40
2018-05-06T21:23:22.670Z,46.40
2018-05-06T21:25:50.100Z,46.10
2018-05-06T21:28:18.154Z,45.80
2018-05-06T21:30:46.099Z,45.80
2018-05-06T21:33:13.463Z,45.80
2018-05-06T21:35:41.010Z,45.80
2018-05-06T21:38:08.443Z,45.90
2018-05-06T21:40:36.812Z,46.10
2018-05-06T21:43:04.290Z,46.20
2018-05-06T21:45:31.831Z,46.30
2018-05-06T21:47:59.235Z,46.60
2018-05-06T21:50:26.699Z,46.70
2018-05-06T21:52:54.167Z,46.30
2018-05-06T21:55:21.654Z,46.70
2018-05-06T21:57:49.140Z,47.10
2018-05-06T22:00:16.739Z,46.90
2018-05-06T22:02:44.188Z,47.00
2018-05-06T22:05:11.663Z,47.20
2018-05-06T22:07:39.189Z,46.90
2018-05-06T22:10:07.048Z,46.90
2018-05-06T22:12:34.492Z,46.90
2018-05-06T22:15:02.025Z,47.10
2018-05-06T22:17:29.508Z,47.10
2018-05-06T22:19:56.956Z,46.90
2018-05-06T22:22:24.406Z,47.30
2018-05-06T22:24:51.917Z,47.30
2018-05-06T22:27:19.863Z,47.30
2018-05-06T22:29:47.298Z,47.30
2018-05-06T22:32:15.511Z,47.30
2018-05-06T22:34:42.974Z,47.30
2018-05-06T22:37:10.439Z,47.80
2018-05-06T22:39:37.881Z,47.60
2018-05-06T22:42:05.331Z,47.50
2018-05-06T22:44:32.830Z,47.80
2018-05-06T22:47:00.297Z,47.60
2018-05-06T22:49:27.841Z,48.30
2018-05-06T22:51:55.276Z,48.20
2018-05-06T22:54:22.732Z,47.90
2018-05-06T22:56:50.315Z,48.00
2018-05-06T22:59:17.771Z,48.00
2018-05-06T23:01:46.199Z,48.00
2018-05-06T23:04:14.309Z,48.30
2018-05-06T23:06:41.746Z,48.30
2018-05-06T23:09:10.525Z,48.60
2018-05-06T23:11:37.962Z,48.60
2018-05-06T23:14:05.534Z,48.60
2018-05-06T23:16:33.008Z,48.20
2018-05-06T23:37:44.290Z,47.80
2018-05-06T23:40:11.705Z,48.50
2018-05-06T23:42:39.168Z,48.90
2018-05-06T23:45:06.614Z,48.20
2018-05-06T23:47:34.056Z,48.50
2018-05-06T23:50:01.907Z,49.10
2018-05-06T23:52:30.115Z,49.10
2018-05-06T23:54:57.570Z,48.90
2018-05-06T23:57:25.554Z,48.50
2018-05-06T23:59:53.388Z,48.50
